Time;durP1;ratioP1;P1;durP2;ratioP2;P2;SDS_P1;SDS_P2;PMS_P1;PMS_P2;Temp;Humidity;BMP_temperature;BMP_pressure;BME280_temperature;BME280_humidity;BME280_pressure;Samples;Min_cycle;Max_cycle;Signal;HPM_P1;HPM_P2
2022/01/05 00:01:40;;;;;;;1999.90;999.90;;;;;;;7.22;66.73;99234.59;5059987;28;20602;-68
2022/01/05 00:04:06;;;;;;;1999.90;999.90;;;;;;;7.37;65.75;99236.25;5076884;28;20413;-68
2022/01/05 00:06:32;;;;;;;1999.90;999.90;;;;;;;7.48;65.66;99239.00;5069931;28;20041;-68
2022/01/05 00:08:59;;;;;;;1999.90;999.90;;;;;;;7.26;65.80;99236.06;5070296;28;20064;-68
2022/01/05 00:11:25;;;;;;;1999.90;999.90;;;;;;;7.31;65.63;99244.47;5070952;28;20484;-68
2022/01/05 00:13:55;;;;;;;1999.90;999.90;;;;;;;6.97;65.70;99242.22;5065235;28;20098;-68
2022/01/05 00:16:22;;;;;;;1999.90;999.90;;;;;;;7.12;66.15;99242.13;5051466;28;20055;-69
2022/01/05 00:18:48;;;;;;;1999.90;999.90;;;;;;;7.29;66.02;99241.09;5057664;28;20044;-69
2022/01/05 00:21:14;;;;;;;1999.90;999.90;;;;;;;7.23;65.75;99231.91;5071064;28;20049;-69
2022/01/05 00:23:41;;;;;;;1999.90;999.90;;;;;;;7.24;66.07;99233.53;5064306;28;20044;-69
2022/01/05 00:26:07;;;;;;;1999.90;999.90;;;;;;;6.76;67.24;99234.75;5061740;28;20105;-68
2022/01/05 00:28:33;;;;;;;1999.90;999.90;;;;;;;6.92;67.01;99215.59;5070398;28;20044;-69
2022/01/05 00:31:01;;;;;;;1999.90;999.90;;;;;;;6.84;67.50;99226.50;5071305;28;20048;-69
2022/01/05 00:33:28;;;;;;;1999.90;999.90;;;;;;;7.03;66.77;99221.84;5071124;28;20093;-69
2022/01/05 00:35:54;;;;;;;1999.90;999.90;;;;;;;6.73;67.22;99223.69;5074975;28;20055;-69
2022/01/05 00:38:21;;;;;;;1999.90;999.90;;;;;;;6.84;66.79;99213.47;5075846;28;20052;-68
2022/01/05 00:40:47;;;;;;;1999.90;999.90;;;;;;;7.05;66.43;99219.16;5061774;28;20098;-69
2022/01/05 00:43:13;;;;;;;1999.90;999.90;;;;;;;7.38;65.63;99216.22;5070225;28;20054;-69
2022/01/05 00:45:40;;;;;;;1999.90;999.90;;;;;;;7.58;65.22;99223.59;5069191;28;20066;-69
2022/01/05 00:48:07;;;;;;;1999.90;999.90;;;;;;;7.25;64.97;99223.97;5068507;28;20094;-69
2022/01/05 00:50:34;;;;;;;1999.90;999.90;;;;;;;7.34;65.02;99226.00;5070551;28;20044;-69
2022/01/05 00:53:01;;;;;;;1999.90;999.90;;;;;;;7.27;64.91;99237.75;5070422;28;20094;-69
2022/01/05 00:55:27;;;;;;;1999.90;999.90;;;;;;;7.29;65.07;99225.44;5054081;28;20140;-69
2022/01/05 00:57:54;;;;;;;1999.90;999.90;;;;;;;7.34;64.09;99231.22;5057662;28;20508;-69
2022/01/05 01:00:20;;;;;;;1999.90;999.90;;;;;;;7.26;64.46;99225.63;5068327;28;20098;-69
2022/01/05 01:02:46;;;;;;;1999.90;999.90;;;;;;;7.32;64.71;99233.06;5068120;28;20443;-69
2022/01/05 01:05:15;;;;;;;1999.90;999.90;;;;;;;7.43;64.22;99235.84;5068129;28;20049;-69
2022/01/05 01:07:41;;;;;;;1999.90;999.90;;;;;;;7.33;64.01;99230.38;5067951;28;20044;-69
2022/01/05 01:10:08;;;;;;;1999.90;999.90;;;;;;;7.45;64.22;99243.59;5068265;28;20094;-69
2022/01/05 01:12:35;;;;;;;1999.90;999.90;;;;;;;7.49;64.28;99234.63;5068848;28;20046;-69
2022/01/05 01:15:01;;;;;;;1999.90;999.90;;;;;;;7.24;64.85;99237.94;5055038;28;20052;-69
2022/01/05 01:17:27;;;;;;;1999.90;999.90;;;;;;;7.33;65.15;99232.16;5049914;28;20045;-69
2022/01/05 01:19:54;;;;;;;1999.90;999.90;;;;;;;7.48;64.96;99249.44;5063743;28;20040;-69
2022/01/05 01:22:22;;;;;;;1999.90;999.90;;;;;;;7.49;64.67;99255.50;5068096;28;20565;-69
2022/01/05 01:24:48;;;;;;;1999.90;999.90;;;;;;;7.01;66.68;99256.75;5068915;28;20125;-69
2022/01/05 01:27:14;;;;;;;1999.90;999.90;;;;;;;7.09;66.43;99259.72;5068860;28;20079;-69
2022/01/05 01:29:41;;;;;;;1999.90;999.90;;;;;;;6.98;67.23;99256.94;5068902;28;20511;-69
2022/01/05 01:32:08;;;;;;;1999.90;999.90;;;;;;;7.07;67.05;99251.16;5068709;28;20045;-69
2022/01/05 01:34:34;;;;;;;1999.90;999.90;;;;;;;7.00;67.06;99255.06;5067625;28;20048;-69
2022/01/05 01:37:01;;;;;;;1999.90;999.90;;;;;;;7.11;67.30;99247.44;5069048;28;20071;-69
2022/01/05 01:39:28;;;;;;;1999.90;999.90;;;;;;;6.88;67.85;99243.63;5068769;28;20098;-69
2022/01/05 01:41:55;;;;;;;1999.90;999.90;;;;;;;6.72;68.85;99248.09;5068849;28;20048;-69
2022/01/05 01:44:21;;;;;;;1999.90;999.90;;;;;;;6.61;69.31;99229.66;5068986;28;20044;-69
2022/01/05 01:46:47;;;;;;;1999.90;999.90;;;;;;;6.49;69.19;99241.63;5071936;28;20489;-69
2022/01/05 01:49:14;;;;;;;1999.90;999.90;;;;;;;6.68;68.16;99238.78;5066762;28;20501;-69
2022/01/05 01:51:41;;;;;;;1999.90;999.90;;;;;;;6.66;68.26;99232.81;5066098;28;20105;-69
2022/01/05 01:54:08;;;;;;;1999.90;999.90;;;;;;;6.41;68.60;99233.41;5070798;28;20056;-69
2022/01/05 01:56:37;;;;;;;1999.90;999.90;;;;;;;6.29;69.56;99231.53;5073359;28;20048;-68
2022/01/05 01:59:05;;;;;;;1999.90;999.90;;;;;;;6.30;69.02;99238.41;5075412;28;20040;-69
2022/01/05 02:01:31;;;;;;;1999.90;999.90;;;;;;;6.47;68.58;99240.06;5070163;28;20102;-69
2022/01/05 02:03:58;;;;;;;1999.90;999.90;;;;;;;6.01;69.81;99255.69;5064117;28;20068;-68
2022/01/05 02:06:24;;;;;;;1999.90;999.90;;;;;;;6.04;70.10;99258.13;5064024;28;20105;-69
2022/01/05 02:08:51;;;;;;;1999.90;999.90;;;;;;;6.26;69.27;99255.97;5058724;28;20048;-69
2022/01/05 02:11:18;;;;;;;1999.90;999.90;;;;;;;6.38;68.81;99249.22;5068610;28;20086;-69
2022/01/05 02:13:46;;;;;;;1999.90;999.90;;;;;;;6.21;68.83;99247.59;5071657;28;20049;-69
2022/01/05 02:16:19;;;;;;;1999.90;999.90;;;;;;;6.27;68.56;99255.06;5072515;28;20114;-69
2022/01/05 02:19:00;;;;;;;1999.90;999.90;;;;;;;6.79;67.39;99237.22;5070944;28;20123;-69
2022/01/05 02:21:28;;;;;;;;;;;;;;;6.69;67.15;99238.66;5069722;28;20476;-69
2022/01/05 02:23:55;;;;;;;1999.90;999.90;;;;;;;6.82;66.42;99237.03;5069986;28;19924;-69
2022/01/05 02:26:21;;;;;;;1999.90;999.90;;;;;;;6.68;66.67;99237.00;5070718;28;20048;-69
2022/01/05 02:28:48;;;;;;;1999.90;999.90;;;;;;;6.45;67.58;99234.06;5066560;28;20090;-69
2022/01/05 02:31:14;;;;;;;1999.90;999.90;;;;;;;6.48;67.26;99239.09;5069596;28;20056;-69
2022/01/05 02:33:41;;;;;;;1999.90;999.90;;;;;;;6.25;67.74;99236.06;5071305;28;20048;-69
2022/01/05 02:36:08;;;;;;;1999.90;999.90;;;;;;;6.23;67.28;99234.50;5066673;28;20041;-69
2022/01/05 02:38:36;;;;;;;1999.90;999.90;;;;;;;6.42;67.52;99232.50;5070779;28;20044;-69
2022/01/05 02:41:06;;;;;;;1999.90;999.90;;;;;;;6.27;66.91;99234.22;5071089;28;20048;-69
2022/01/05 02:43:33;;;;;;;1999.90;999.90;;;;;;;6.44;66.43;99233.22;5070708;28;20059;-69
2022/01/05 02:45:59;;;;;;;1999.90;999.90;;;;;;;6.63;66.07;99225.19;5070059;28;20071;-69
2022/01/05 02:48:25;;;;;;;1999.90;999.90;;;;;;;6.50;66.30;99230.28;5070721;28;20052;-69
2022/01/05 02:50:56;;;;;;;1999.90;999.90;;;;;;;6.50;66.23;99229.44;5069163;28;20040;-69
2022/01/05 02:53:22;;;;;;;1999.90;999.90;;;;;;;6.45;66.78;99216.69;5062195;28;20118;-69
2022/01/05 02:55:50;;;;;;;1999.90;999.90;;;;;;;6.36;67.23;99231.06;5069564;28;20570;-69
2022/01/05 02:58:16;;;;;;;1999.90;999.90;;;;;;;6.57;66.65;99226.41;5070206;28;20049;-69
2022/01/05 03:00:42;;;;;;;1999.90;999.90;;;;;;;6.58;66.44;99241.06;5067833;28;20094;-69
2022/01/05 03:03:09;;;;;;;1999.90;999.90;;;;;;;6.57;66.36;99246.38;5070652;28;20040;-69
2022/01/05 03:05:35;;;;;;;1999.90;999.90;;;;;;;6.57;66.51;99249.84;5067701;28;20045;-69
2022/01/05 03:08:01;;;;;;;1999.90;999.90;;;;;;;6.30;66.78;99256.63;5067791;28;20049;-69
2022/01/05 03:10:28;;;;;;;1999.90;999.90;;;;;;;6.25;67.39;99269.06;5071212;28;20048;-69
2022/01/05 03:12:56;;;;;;;1999.90;999.90;;;;;;;6.32;67.41;99253.00;5070855;28;20064;-69
2022/01/05 03:15:22;;;;;;;1999.90;999.90;;;;;;;6.47;67.17;99253.06;5071182;28;20126;-69
2022/01/05 03:17:48;;;;;;;1999.90;999.90;;;;;;;6.47;66.71;99253.88;5054594;28;20041;-69
2022/01/05 03:20:17;;;;;;;1999.90;999.90;;;;;;;6.52;66.88;99246.66;5070816;28;20667;-69
2022/01/05 03:22:45;;;;;;;1999.90;999.90;;;;;;;6.39;67.26;99244.84;5070752;28;20037;-69
2022/01/05 03:25:16;;;;;;;1999.90;999.90;;;;;;;6.22;67.81;99251.03;5053890;28;20041;-69
2022/01/05 03:27:43;;;;;;;1999.90;999.90;;;;;;;6.14;67.49;99251.47;5050802;28;20048;-69
2022/01/05 03:30:13;;;;;;;1999.90;999.90;;;;;;;6.27;67.68;99259.41;5058228;28;20041;-69
2022/01/05 03:32:50;;;;;;;1999.90;999.90;;;;;;;6.42;67.15;99253.31;5070775;28;20090;-69
2022/01/05 03:35:17;;;;;;;1999.90;999.90;;;;;;;6.15;67.84;99254.91;5078153;28;20048;-69
2022/01/05 03:37:43;;;;;;;1999.90;999.90;;;;;;;6.13;67.97;99238.56;5064292;28;20139;-69
2022/01/05 03:40:10;;;;;;;1999.90;999.90;;;;;;;6.15;67.57;99253.16;5071013;28;20125;-69
2022/01/05 03:42:37;;;;;;;1999.90;999.90;;;;;;;6.35;67.25;99249.41;5070263;28;20041;-69
2022/01/05 03:45:04;;;;;;;1999.90;999.90;;;;;;;6.15;67.51;99249.69;5069653;28;20501;-69
2022/01/05 03:47:31;;;;;;;1999.90;999.90;;;;;;;6.24;66.93;99249.19;5068155;28;20471;-69
2022/01/05 03:49:58;;;;;;;1999.90;999.90;;;;;;;6.08;67.57;99254.44;5067287;28;20045;-69
2022/01/05 03:52:24;;;;;;;1999.90;999.90;;;;;;;6.18;67.58;99265.97;5066194;28;20048;-69
2022/01/05 03:54:51;;;;;;;1999.90;999.90;;;;;;;6.17;67.50;99259.09;5067676;28;20060;-68
2022/01/05 03:57:17;;;;;;;1999.90;999.90;;;;;;;6.04;67.89;99262.47;5066334;28;20041;-68
2022/01/05 03:59:44;;;;;;;1999.90;999.90;;;;;;;6.03;67.71;99271.22;5068765;28;20589;-68
2022/01/05 04:02:10;;;;;;;1999.90;999.90;;;;;;;6.13;67.70;99272.38;5068416;28;20493;-69
2022/01/05 04:04:38;;;;;;;1999.90;999.90;;;;;;;6.21;67.18;99270.16;5070284;28;20044;-68
2022/01/05 04:07:04;;;;;;;1999.90;999.90;;;;;;;6.43;66.75;99268.00;5068533;28;20118;-69
2022/01/05 04:09:31;;;;;;;1999.90;999.90;;;;;;;6.24;67.31;99280.41;5067623;28;20140;-69
2022/01/05 04:11:57;;;;;;;1999.90;999.90;;;;;;;6.13;67.24;99281.03;5068489;28;20098;-69
2022/01/05 04:14:23;;;;;;;1999.90;999.90;;;;;;;6.09;67.78;99289.94;5067400;28;20049;-68
2022/01/05 04:16:50;;;;;;;1999.90;999.90;;;;;;;6.13;67.71;99282.78;5067503;28;20044;-69
2022/01/05 04:19:16;;;;;;;1999.90;999.90;;;;;;;6.00;67.75;99287.84;5068407;28;20056;-69
2022/01/05 04:21:44;;;;;;;1999.90;999.90;;;;;;;5.90;68.57;99278.03;5068796;28;20113;-69
2022/01/05 04:24:10;;;;;;;1999.90;999.90;;;;;;;6.18;67.48;99267.75;5069372;28;20441;-69
2022/01/05 04:26:36;;;;;;;1999.90;999.90;;;;;;;5.95;68.16;99260.41;5072573;28;20102;-69
2022/01/05 04:29:03;;;;;;;1999.90;999.90;;;;;;;6.26;67.00;99270.75;5068087;28;20908;-69
2022/01/05 04:31:30;;;;;;;1999.90;999.90;;;;;;;6.28;66.63;99285.34;5069001;28;20045;-69
2022/01/05 04:33:56;;;;;;;1999.90;999.90;;;;;;;5.58;68.63;99275.41;5068988;28;20044;-69
2022/01/05 04:36:22;;;;;;;1999.90;999.90;;;;;;;5.80;68.40;99270.69;5069014;28;20052;-69
2022/01/05 04:38:50;;;;;;;1999.90;999.90;;;;;;;5.85;67.93;99267.84;5067937;28;20044;-69
2022/01/05 04:41:16;;;;;;;1999.90;999.90;;;;;;;5.62;68.74;99276.91;5068859;28;20109;-69
2022/01/05 04:43:43;;;;;;;1999.90;999.90;;;;;;;5.58;68.83;99280.59;5069255;28;20044;-69
2022/01/05 04:46:09;;;;;;;1999.90;999.90;;;;;;;5.67;68.81;99290.50;5064362;28;20128;-69
2022/01/05 04:48:35;;;;;;;1999.90;999.90;;;;;;;5.62;68.99;99291.66;5050286;28;20041;-69
2022/01/05 04:51:02;;;;;;;1999.90;999.90;;;;;;;5.57;69.07;99278.94;5060590;28;20409;-69
2022/01/05 04:53:29;;;;;;;1999.90;999.90;;;;;;;5.51;69.41;99281.00;5066978;28;20087;-69
2022/01/05 04:55:57;;;;;;;1999.90;999.90;;;;;;;5.50;69.30;99292.34;5068830;28;20040;-69
2022/01/05 04:58:23;;;;;;;1999.90;999.90;;;;;;;5.60;68.80;99296.97;5068537;28;20429;-69
2022/01/05 05:00:49;;;;;;;1999.90;999.90;;;;;;;5.62;68.87;99294.28;5068131;28;20166;-69
2022/01/05 05:03:16;;;;;;;1999.90;999.90;;;;;;;5.70;68.40;99289.50;5066003;28;20052;-69
2022/01/05 05:05:42;;;;;;;1999.90;999.90;;;;;;;5.37;69.19;99290.41;5080181;28;20515;-69
2022/01/05 05:08:08;;;;;;;1999.90;999.90;;;;;;;5.47;68.94;99302.94;5066269;28;20036;-69
2022/01/05 05:10:35;;;;;;;1999.90;999.90;;;;;;;5.69;68.71;99303.44;5068449;28;20040;-69
2022/01/05 05:13:08;;;;;;;1999.90;999.90;;;;;;;5.36;69.02;99306.91;5068348;28;20063;-69
2022/01/05 05:15:35;;;;;;;1999.90;999.90;;;;;;;5.48;69.14;99297.63;5061300;28;20045;-69
2022/01/05 05:18:01;;;;;;;1999.90;999.90;;;;;;;5.60;68.22;99285.72;5060603;28;20082;-69
2022/01/05 05:20:27;;;;;;;1999.90;999.90;;;;;;;5.40;69.11;99292.00;5066710;28;20056;-69
2022/01/05 05:22:54;;;;;;;1999.90;999.90;;;;;;;5.50;68.91;99294.97;5068011;28;20098;-68
2022/01/05 05:25:20;;;;;;;1999.90;999.90;;;;;;;5.22;69.65;99299.00;5067419;28;20093;-68
2022/01/05 05:27:46;;;;;;;1999.90;999.90;;;;;;;5.09;69.58;99302.34;5067764;28;20052;-68
2022/01/05 05:30:14;;;;;;;1999.90;999.90;;;;;;;5.05;70.05;99300.81;5067704;28;20044;-68
2022/01/05 05:32:40;;;;;;;1999.90;999.90;;;;;;;5.17;70.13;99298.44;5062422;28;20058;-68
2022/01/05 05:35:08;;;;;;;1999.90;999.90;;;;;;;5.37;69.40;99295.59;5064487;28;20045;-68
2022/01/05 05:37:34;;;;;;;1999.90;999.90;;;;;;;5.36;68.78;99295.66;5067727;28;20485;-68
2022/01/05 05:40:00;;;;;;;1999.90;999.90;;;;;;;5.50;68.71;99307.94;5064918;28;20080;-69
2022/01/05 05:42:27;;;;;;;1999.90;999.90;;;;;;;5.30;69.05;99304.66;5061435;28;20048;-68
2022/01/05 05:44:53;;;;;;;1999.90;999.90;;;;;;;5.22;69.99;99309.41;5066608;28;20488;-68
2022/01/05 05:47:21;;;;;;;1999.90;999.90;;;;;;;4.83;70.58;99312.31;5065821;28;20053;-68
2022/01/05 05:49:48;;;;;;;1999.90;999.90;;;;;;;4.81;70.80;99315.88;5067178;28;20044;-68
2022/01/05 05:52:15;;;;;;;1999.90;999.90;;;;;;;5.12;70.35;99299.56;5066237;28;20053;-68
2022/01/05 05:54:42;;;;;;;1999.90;999.90;;;;;;;5.12;70.00;99312.56;5068735;28;20044;-68
2022/01/05 05:57:08;;;;;;;1999.90;999.90;;;;;;;5.16;70.33;99314.94;5055743;28;20105;-68
2022/01/05 05:59:35;;;;;;;1999.90;999.90;;;;;;;5.07;70.47;99322.34;5067556;28;20496;-68
2022/01/05 06:02:01;;;;;;;1999.90;999.90;;;;;;;4.94;70.81;99318.72;5066402;28;20113;-68
2022/01/05 06:04:29;;;;;;;1999.90;999.90;;;;;;;4.95;70.78;99317.81;5074308;28;20072;-68
2022/01/05 06:06:56;;;;;;;1999.90;999.90;;;;;;;4.79;70.94;99333.31;5071222;28;20041;-68
2022/01/05 06:09:22;;;;;;;1999.90;999.90;;;;;;;4.78;70.92;99335.06;5067958;28;20040;-68
2022/01/05 06:11:49;;;;;;;1999.90;999.90;;;;;;;5.02;70.39;99338.19;5067232;28;20158;-68
2022/01/05 06:14:15;;;;;;;1999.90;999.90;;;;;;;4.92;70.54;99344.75;5067025;28;20106;-68
2022/01/05 06:16:43;;;;;;;1999.90;999.90;;;;;;;4.82;71.02;99334.00;5061074;28;20044;-68
2022/01/05 06:19:10;;;;;;;1999.90;999.90;;;;;;;4.82;70.95;99331.41;5050745;28;20057;-68
2022/01/05 06:21:37;;;;;;;1999.90;999.90;;;;;;;4.86;71.08;99345.91;5048980;28;20098;-68
2022/01/05 06:24:04;;;;;;;1999.90;999.90;;;;;;;4.79;71.03;99346.31;5059738;28;20049;-68
2022/01/05 06:26:31;;;;;;;1999.90;999.90;;;;;;;4.59;71.53;99339.50;5058888;28;20102;-68
2022/01/05 06:28:57;;;;;;;1999.90;999.90;;;;;;;4.69;71.40;99340.72;5063655;28;20094;-68
2022/01/05 06:31:24;;;;;;;1999.90;999.90;;;;;;;4.84;70.95;99344.31;5070056;28;20641;-68
2022/01/05 06:33:50;;;;;;;1999.90;999.90;;;;;;;4.61;70.94;99353.25;5070915;28;20094;-68
2022/01/05 06:36:16;;;;;;;1999.90;999.90;;;;;;;4.36;71.76;99345.00;5071171;28;20109;-68
2022/01/05 06:38:44;;;;;;;1999.90;999.90;;;;;;;4.41;71.97;99349.03;5070853;28;20040;-68
2022/01/05 06:41:10;;;;;;;1999.90;999.90;;;;;;;4.51;71.34;99349.41;5071603;28;20094;-68
2022/01/05 06:43:37;;;;;;;1999.90;999.90;;;;;;;4.58;70.77;99365.53;5070856;28;20044;-68
2022/01/05 06:46:03;;;;;;;1999.90;999.90;;;;;;;4.44;71.05;99366.19;5068692;28;20094;-68
2022/01/05 06:48:29;;;;;;;1999.90;999.90;;;;;;;4.79;70.04;99374.88;5068650;28;20072;-68
2022/01/05 06:50:56;;;;;;;1999.90;999.90;;;;;;;4.90;69.19;99380.38;5070586;28;20071;-68
2022/01/05 06:53:22;;;;;;;1999.90;999.90;;;;;;;5.09;68.38;99378.53;5069732;28;20049;-68
2022/01/05 06:55:50;;;;;;;1999.90;999.90;;;;;;;4.67;68.92;99375.47;5051156;28;20098;-68
2022/01/05 06:58:16;;;;;;;1999.90;999.90;;;;;;;4.83;68.70;99384.19;5063738;28;20559;-68
2022/01/05 07:00:43;;;;;;;1999.90;999.90;;;;;;;4.67;69.40;99383.25;5071011;28;20177;-68
2022/01/05 07:03:10;;;;;;;1999.90;999.90;;;;;;;4.70;69.13;99390.88;5071014;28;20094;-68
2022/01/05 07:05:38;;;;;;;1999.90;999.90;;;;;;;4.30;69.40;99390.22;5077838;28;20040;-68
2022/01/05 07:08:05;;;;;;;1999.90;999.90;;;;;;;4.40;69.02;99390.63;5064458;28;20041;-68
2022/01/05 07:10:31;;;;;;;1999.90;999.90;;;;;;;4.59;69.14;99381.03;5070770;28;20719;-68
2022/01/05 07:12:59;;;;;;;1999.90;999.90;;;;;;;4.95;67.65;99377.53;5064909;28;20049;-68
2022/01/05 07:15:25;;;;;;;1999.90;999.90;;;;;;;4.58;67.91;99376.75;5070020;28;20048;-68
2022/01/05 07:17:52;;;;;;;1999.90;999.90;;;;;;;4.73;67.69;99377.78;5056639;28;20049;-67
2022/01/05 07:20:18;;;;;;;1999.90;999.90;;;;;;;4.58;67.68;99378.53;5051371;28;20060;-68
2022/01/05 07:22:45;;;;;;;1999.90;999.90;;;;;;;4.35;68.26;99392.59;5050725;28;20075;-68
2022/01/05 07:25:11;;;;;;;1999.90;999.90;;;;;;;4.29;68.70;99385.94;5051235;28;20098;-68
2022/01/05 07:27:38;;;;;;;1999.90;999.90;;;;;;;4.34;67.99;99390.91;5050412;28;20065;-68
2022/01/05 07:30:08;;;;;;;1999.90;999.90;;;;;;;4.22;68.52;99392.34;5065270;28;20056;-68
2022/01/05 07:32:34;;;;;;;1999.90;999.90;;;;;;;3.86;69.51;99394.91;5068829;28;20041;-68
2022/01/05 07:35:00;;;;;;;1999.90;999.90;;;;;;;3.78;69.15;99391.81;5070350;28;20048;-67
2022/01/05 07:37:27;;;;;;;1999.90;999.90;;;;;;;3.82;68.75;99388.16;5068957;28;20469;-68
2022/01/05 07:39:53;;;;;;;1999.90;999.90;;;;;;;3.66;69.02;99396.72;5069781;28;20113;-66
2022/01/05 07:42:20;;;;;;;1999.90;999.90;;;;;;;3.75;68.82;99407.50;5070079;28;20052;-70
2022/01/05 07:44:46;;;;;;;1999.90;999.90;;;;;;;3.75;68.28;99404.06;5069985;28;20416;-68
2022/01/05 07:47:14;;;;;;;1999.90;999.90;;;;;;;3.68;68.03;99400.91;5069553;28;20075;-67
2022/01/05 07:49:40;;;;;;;1999.90;999.90;;;;;;;3.57;68.41;99400.56;5061404;28;20437;-67
2022/01/05 07:52:07;;;;;;;1999.90;999.90;;;;;;;3.47;68.17;99401.03;5068146;28;20106;-68
2022/01/05 07:54:35;;;;;;;1999.90;999.90;;;;;;;3.47;68.23;99394.09;5063571;28;20060;-67
2022/01/05 07:57:01;;;;;;;1999.90;999.90;;;;;;;3.64;68.17;99394.19;5059690;28;20126;-67
2022/01/05 07:59:28;;;;;;;1999.90;999.90;;;;;;;3.63;68.22;99402.00;5054073;28;20136;-67
2022/01/05 08:01:54;;;;;;;1999.90;999.90;;;;;;;3.39;68.35;99386.66;5069727;28;20098;-67
2022/01/05 08:04:22;;;;;;;1999.90;999.90;;;;;;;3.49;68.15;99405.22;5069882;28;20109;-67
2022/01/05 08:06:48;;;;;;;1999.90;999.90;;;;;;;3.44;68.00;99396.81;5068581;28;20048;-67
2022/01/05 08:09:14;;;;;;;1999.90;999.90;;;;;;;3.53;67.87;99405.94;5059676;28;20118;-67
2022/01/05 08:11:41;;;;;;;1999.90;999.90;;;;;;;3.55;67.86;99406.72;5065881;28;20106;-67
2022/01/05 08:14:07;;;;;;;1999.90;999.90;;;;;;;3.58;67.35;99412.59;5057706;28;20124;-67
2022/01/05 08:16:33;;;;;;;1999.90;999.90;;;;;;;3.68;67.00;99415.63;5068941;28;20066;-67
2022/01/05 08:19:00;;;;;;;1999.90;999.90;;;;;;;3.79;66.78;99408.22;5069337;28;20049;-67
2022/01/05 08:21:27;;;;;;;1999.90;999.90;;;;;;;3.69;67.18;99410.38;5069870;28;20469;-67
2022/01/05 08:23:54;;;;;;;1999.90;999.90;;;;;;;3.83;66.29;99418.38;5068395;28;20554;-67
2022/01/05 08:26:20;;;;;;;1999.90;999.90;;;;;;;3.86;66.36;99410.44;5068260;28;20074;-68
2022/01/05 08:28:46;;;;;;;1999.90;999.90;;;;;;;3.92;65.76;99404.13;5069268;28;20063;-68
2022/01/05 08:31:13;;;;;;;1999.90;999.90;;;;;;;3.75;65.85;99417.88;5069792;28;20052;-67
2022/01/05 08:33:39;;;;;;;1999.90;999.90;;;;;;;3.78;66.20;99411.69;5067987;28;20129;-67
2022/01/05 08:36:06;;;;;;;1999.90;999.90;;;;;;;4.13;65.62;99407.50;5066130;28;20110;-68
2022/01/05 08:38:35;;;;;;;1999.90;999.90;;;;;;;4.09;65.63;99413.75;5069159;28;20049;-68
2022/01/05 08:41:01;;;;;;;1999.90;999.90;;;;;;;4.19;64.69;99407.22;5069156;28;20046;-68
2022/01/05 08:43:28;;;;;;;1999.90;999.90;;;;;;;4.15;64.83;99414.28;5069350;28;20500;-67
2022/01/05 08:45:54;;;;;;;1999.90;999.90;;;;;;;4.22;64.82;99415.69;5067855;28;20101;-67
2022/01/05 08:48:21;;;;;;;1999.90;999.90;;;;;;;4.16;65.01;99420.31;5068693;28;20052;-67
2022/01/05 08:50:47;;;;;;;1999.90;999.90;;;;;;;4.18;65.08;99421.09;5069237;28;20493;-67
2022/01/05 08:53:14;;;;;;;1999.90;999.90;;;;;;;4.28;64.51;99432.75;5069152;28;20052;-67
2022/01/05 08:55:45;;;;;;;1999.90;999.90;;;;;;;4.37;64.40;99424.50;5058364;28;20041;-67
2022/01/05 08:58:14;;;;;;;1999.90;999.90;;;;;;;4.36;64.18;99426.25;5066351;28;20109;-67
2022/01/05 09:00:40;;;;;;;1999.90;999.90;;;;;;;4.28;64.04;99409.38;5068524;28;20060;-67
2022/01/05 09:03:07;;;;;;;1999.90;999.90;;;;;;;4.65;63.69;99418.84;5068994;28;20040;-67
2022/01/05 09:05:34;;;;;;;1999.90;999.90;;;;;;;4.68;62.91;99418.69;5058596;28;20051;-67
2022/01/05 09:08:01;;;;;;;1999.90;999.90;;;;;;;4.85;62.41;99427.34;5048458;28;20107;-67
2022/01/05 09:10:29;;;;;;;1999.90;999.90;;;;;;;5.17;61.20;99427.50;5055081;28;20381;-67
2022/01/05 09:12:57;;;;;;;1999.90;999.90;;;;;;;4.95;61.55;99426.91;5068222;28;20047;-67
2022/01/05 09:15:23;;;;;;;1999.90;999.90;;;;;;;5.21;60.77;99423.84;5068341;28;20045;-67
2022/01/05 09:17:50;;;;;;;1999.90;999.90;;;;;;;5.20;60.58;99423.00;5068633;28;20435;-67
2022/01/05 09:20:16;;;;;;;1999.90;999.90;;;;;;;5.68;60.02;99432.63;5066997;28;20048;-67
2022/01/05 09:22:43;;;;;;;1999.90;999.90;;;;;;;5.94;58.64;99423.47;5067153;28;20110;-67
2022/01/05 09:25:12;;;;;;;1999.90;999.90;;;;;;;6.22;58.17;99425.41;5066334;28;20048;-67
2022/01/05 09:27:39;;;;;;;1999.90;999.90;;;;;;;6.01;59.54;99421.38;5065641;28;20040;-68
2022/01/05 09:30:09;;;;;;;1999.90;999.90;;;;;;;6.29;57.86;99421.53;5064782;28;20463;-68
2022/01/05 09:32:36;;;;;;;1999.90;999.90;;;;;;;6.82;56.41;99424.59;5066470;28;20048;-67
2022/01/05 09:35:03;;;;;;;1999.90;999.90;;;;;;;6.57;57.33;99429.53;5064234;28;20420;-67
2022/01/05 09:37:34;;;;;;;1999.90;999.90;;;;;;;7.24;55.69;99426.47;5045976;28;20045;-68
2022/01/05 09:42:45;;;;;;;1999.90;999.90;;;;;;;7.19;54.77;99444.16;5066819;28;20557;-67
2022/01/05 09:45:19;;;;;;;1999.90;999.90;;;;;;;6.98;55.78;99440.19;5065027;28;20488;-68
2022/01/05 09:48:11;;;;;;;1999.90;999.90;;;;;;;6.89;56.72;99437.25;5066139;28;20051;-68
2022/01/05 09:50:43;;;;;;;1999.90;999.90;;;;;;;7.23;55.46;99431.78;5064997;28;20408;-68
2022/01/05 09:53:11;;;;;;;1999.90;999.90;;;;;;;7.24;55.11;99436.09;5064949;28;20128;-68
2022/01/05 09:55:38;;;;;;;1999.90;999.90;;;;;;;7.28;55.29;99440.16;5065860;28;20475;-68
2022/01/05 09:58:05;;;;;;;1999.90;999.90;;;;;;;7.18;54.95;99436.41;5065472;28;20040;-68
2022/01/05 10:00:32;;;;;;;1999.90;999.90;;;;;;;7.04;55.44;99445.06;5065751;28;20428;-68
2022/01/05 10:02:59;;;;;;;1999.90;999.90;;;;;;;7.41;54.35;99441.13;5065664;28;20041;-68
2022/01/05 10:05:25;;;;;;;1999.90;999.90;;;;;;;7.62;54.55;99437.22;5065540;28;20513;-68
2022/01/05 10:07:52;;;;;;;1999.90;999.90;;;;;;;8.23;52.40;99434.31;5069252;28;20067;-68
2022/01/05 10:10:18;;;;;;;1999.90;999.90;;;;;;;8.45;51.69;99439.06;5069359;28;20118;-68
2022/01/05 10:12:44;;;;;;;1999.90;999.90;;;;;;;8.14;51.71;99429.66;5067643;28;20554;-68
2022/01/05 10:15:13;;;;;;;1999.90;999.90;;;;;;;8.14;51.94;99439.25;5069207;28;20048;-68
2022/01/05 10:17:41;;;;;;;1999.90;999.90;;;;;;;8.14;52.41;99431.44;5068961;28;20098;-68
2022/01/05 10:20:10;;;;;;;1999.90;999.90;;;;;;;8.18;51.85;99423.31;5069208;28;20121;-68
2022/01/05 10:22:38;;;;;;;1999.90;999.90;;;;;;;8.60;51.29;99430.25;5069066;28;20091;-68
2022/01/05 10:25:07;;;;;;;1999.90;999.90;;;;;;;8.51;51.39;99436.03;5068473;28;20634;-68
2022/01/05 10:27:33;;;;;;;1999.90;999.90;;;;;;;8.20;52.32;99423.22;5069528;28;20048;-68
2022/01/05 10:30:05;;;;;;;1999.90;999.90;;;;;;;7.91;52.83;99426.81;5068993;28;20047;-68
2022/01/05 10:32:32;;;;;;;;;;;;;;;8.12;52.02;99421.09;5063598;28;20050;-68
2022/01/05 10:35:07;;;;;;;1999.90;999.90;;;;;;;7.95;52.16;99421.28;5060429;28;20284;-68
2022/01/05 10:37:34;;;;;;;1999.90;999.90;;;;;;;7.83;52.69;99411.63;5063638;28;20505;-68
2022/01/05 10:40:07;;;;;;;1999.90;999.90;;;;;;;7.91;52.77;99419.00;5062764;28;20094;-68
2022/01/05 10:42:33;;;;;;;1999.90;999.90;;;;;;;7.84;52.62;99416.72;5067945;28;20098;-68
2022/01/05 10:45:01;;;;;;;1999.90;999.90;;;;;;;7.37;53.52;99416.16;5068683;28;20471;-68
2022/01/05 10:47:28;;;;;;;1999.90;999.90;;;;;;;7.84;53.10;99427.16;5068314;28;20098;-68
2022/01/05 10:49:55;;;;;;;1999.90;999.90;;;;;;;8.13;52.15;99416.72;5065295;28;20405;-68
2022/01/05 10:52:26;;;;;;;1999.90;999.90;;;;;;;7.20;53.96;99419.78;5067348;28;20040;-67
2022/01/05 10:54:55;;;;;;;1999.90;999.90;;;;;;;6.47;56.15;99436.16;5066958;28;20041;-67
2022/01/05 10:57:22;;;;;;;1999.90;999.90;;;;;;;6.65;56.38;99414.28;5060638;28;20049;-67
2022/01/05 10:59:51;;;;;;;1999.90;999.90;;;;;;;6.80;56.21;99426.44;5067725;28;20114;-68
2022/01/05 11:02:21;;;;;;;1999.90;999.90;;;;;;;7.26;55.81;99423.78;5068928;28;20102;-68
2022/01/05 11:04:48;;;;;;;1999.90;999.90;;;;;;;7.52;54.53;99423.06;5053709;28;20051;-68